Time;durP1;ratioP1;P1;durP2;ratioP2;P2;SDS_P1;SDS_P2;PMS_P1;PMS_P2;Temp;Humidity;BMP_temperature;BMP_pressure;BME280_temperature;BME280_humidity;BME280_pressure;Samples;Min_cycle;Max_cycle;Signal;HPM_P1;HPM_P2
2021/10/21 00:02:12;;;;;;;6.80;5.35;;;;;;;13.91;69.71;100135.31;4936574;29;20044;-85
2021/10/21 00:04:39;;;;;;;8.93;5.00;;;;;;;13.93;69.83;100125.56;4936863;29;20425;-85
2021/10/21 00:07:06;;;;;;;4.30;3.90;;;;;;;13.91;69.99;100130.91;4936382;29;20411;-86
2021/10/21 00:09:33;;;;;;;3.75;3.35;;;;;;;14.06;69.24;100123.78;4937129;29;20054;-83
2021/10/21 00:12:02;;;;;;;5.05;3.03;;;;;;;14.24;68.27;100117.34;4936320;29;20044;-85
2021/10/21 00:14:30;;;;;;;3.38;2.95;;;;;;;14.33;67.92;100118.50;4936766;29;20470;-88
2021/10/21 00:16:58;;;;;;;3.90;3.50;;;;;;;14.36;67.48;100106.00;4936701;29;20546;-89
2021/10/21 00:19:24;;;;;;;4.97;3.28;;;;;;;14.32;67.30;100108.94;4936556;29;20040;-88
2021/10/21 00:21:51;;;;;;;3.92;3.20;;;;;;;14.12;68.55;100097.19;4936630;29;20075;-88
2021/10/21 00:24:18;;;;;;;9.57;2.60;;;;;;;14.27;69.27;100098.75;4936397;29;20044;-88
2021/10/21 00:26:46;;;;;;;4.50;2.70;;;;;;;14.41;67.48;100096.06;4936460;29;20111;-88
2021/10/21 00:29:13;;;;;;;5.85;2.45;;;;;;;14.51;66.32;100082.34;4919067;29;20044;-89
2021/10/21 00:31:40;;;;;;;2.45;2.03;;;;;;;14.56;66.25;100091.59;4936707;29;20114;-86
2021/10/21 00:34:07;;;;;;;3.08;2.38;;;;;;;14.50;66.56;100078.91;4936033;29;20386;-86
2021/10/21 00:36:34;;;;;;;2.40;2.20;;;;;;;14.53;67.10;100070.78;4936495;29;20051;-86
2021/10/21 00:39:01;;;;;;;2.60;2.00;;;;;;;14.49;67.39;100074.59;4918969;29;20052;-85
2021/10/21 00:41:27;;;;;;;2.15;1.85;;;;;;;14.36;67.76;100061.44;4935973;29;20455;-87
2021/10/21 00:44:05;;;;;;;2.08;1.88;;;;;;;14.37;67.49;100070.97;4936170;29;20055;-87
2021/10/21 00:46:32;;;;;;;3.55;1.90;;;;;;;14.46;66.69;100066.06;4936224;29;20388;-85
2021/10/21 00:48:59;;;;;;;2.28;2.08;;;;;;;14.19;69.20;100060.91;4935974;29;20048;-88
2021/10/21 00:51:31;;;;;;;4.25;3.40;;;;;;;14.26;68.95;100062.16;4902899;29;20082;-88
2021/10/21 00:53:59;;;;;;;3.40;2.20;;;;;;;14.35;68.72;100061.56;4936113;29;20444;-86
2021/10/21 00:56:26;;;;;;;9.05;5.20;;;;;;;13.96;70.23;100063.31;4935473;29;20088;-85
2021/10/21 00:58:55;;;;;;;5.72;5.18;;;;;;;13.97;70.15;100057.13;4931555;29;20506;-86
2021/10/21 01:01:22;;;;;;;7.57;6.10;;;;;;;13.93;70.67;100050.41;4923371;29;20048;-88
2021/10/21 01:03:50;;;;;;;7.85;5.70;;;;;;;14.07;70.20;100046.88;4932725;29;20072;-88
2021/10/21 01:06:19;;;;;;;7.13;5.30;;;;;;;14.15;70.04;100049.78;4935100;29;20487;-88
2021/10/21 01:08:46;;;;;;;6.38;5.57;;;;;;;14.31;69.45;100042.56;4935527;29;20063;-89
2021/10/21 01:11:14;;;;;;;8.15;6.20;;;;;;;14.29;69.22;100036.59;4935492;29;20051;-91
2021/10/21 01:13:41;;;;;;;6.55;5.68;;;;;;;14.31;69.32;100033.84;4932149;29;20102;-90
2021/10/21 01:16:11;;;;;;;5.95;5.28;;;;;;;14.28;69.56;100039.31;4934922;29;20119;-88
2021/10/21 01:18:39;;;;;;;5.72;3.45;;;;;;;14.26;70.26;100036.78;4934383;29;20044;-88
2021/10/21 01:21:07;;;;;;;2.65;2.40;;;;;;;14.34;70.02;100031.03;4934906;29;20058;-87
2021/10/21 01:23:36;;;;;;;3.60;2.45;;;;;;;14.37;69.57;100030.81;4934750;29;20087;-85
2021/10/21 01:26:07;;;;;;;2.83;2.63;;;;;;;14.53;68.96;100028.00;4934457;29;20443;-86
2021/10/21 01:28:33;;;;;;;2.97;2.20;;;;;;;14.60;68.81;100024.84;4935234;29;20087;-85
2021/10/21 01:31:00;;;;;;;1.80;1.70;;;;;;;14.66;67.75;100011.28;4934502;29;20044;-86
2021/10/21 01:33:27;;;;;;;2.28;2.08;;;;;;;14.66;67.54;100008.66;4935372;29;20497;-86
2021/10/21 01:35:54;;;;;;;2.80;2.45;;;;;;;14.72;66.38;100003.94;4936175;29;20040;-86
2021/10/21 01:38:21;;;;;;;4.18;3.03;;;;;;;14.46;68.76;99996.09;4935703;29;20039;-86
2021/10/21 01:40:48;;;;;;;6.00;3.40;;;;;;;14.33;69.80;99996.13;4942208;29;20039;-85
2021/10/21 01:43:14;;;;;;;4.40;3.15;;;;;;;14.47;69.48;100005.66;4940808;29;20565;-86
2021/10/21 01:45:41;;;;;;;2.80;2.60;;;;;;;14.49;70.22;100006.41;4934517;29;20048;-86
2021/10/21 01:48:08;;;;;;;2.20;2.10;;;;;;;14.49;70.26;100000.28;4934613;29;20456;-85
2021/10/21 01:50:35;;;;;;;5.82;2.40;;;;;;;14.51;70.10;99983.53;4935099;29;20047;-85
2021/10/21 01:53:02;;;;;;;3.20;2.15;;;;;;;14.22;72.02;99987.28;4935924;29;20054;-86
2021/10/21 01:55:29;;;;;;;4.82;2.80;;;;;;;14.31;70.61;99970.94;4935440;29;20096;-87
2021/10/21 01:57:56;;;;;;;4.50;3.97;;;;;;;14.34;71.08;99960.25;4937547;29;20075;-87
2021/10/21 02:00:24;;;;;;;9.52;5.25;;;;;;;14.16;71.42;99970.19;4934426;29;20445;-87
2021/10/21 02:02:51;;;;;;;7.20;5.03;;;;;;;14.03;72.06;99970.22;4917515;29;20070;-86
2021/10/21 02:05:19;;;;;;;7.75;5.35;;;;;;;14.07;71.15;99955.97;4917941;29;20040;-85
2021/10/21 02:07:47;;;;;;;3.95;3.55;;;;;;;14.21;70.05;99943.66;4934340;29;20214;-86
2021/10/21 02:10:18;;;;;;;5.47;4.13;;;;;;;14.34;69.89;99947.13;4934256;29;20073;-86
2021/10/21 02:12:46;;;;;;;4.72;3.70;;;;;;;14.34;70.76;99932.22;4934483;29;20452;-86
2021/10/21 02:15:13;;;;;;;6.03;3.80;;;;;;;14.28;71.51;99923.97;4934743;29;20044;-86
2021/10/21 02:17:40;;;;;;;9.52;3.60;;;;;;;14.36;71.00;99926.88;4934083;29;20557;-85
2021/10/21 02:20:09;;;;;;;3.65;3.10;;;;;;;14.36;71.21;99919.00;4934580;29;20096;-85
2021/10/21 02:22:38;;;;;;;3.42;3.13;;;;;;;14.39;71.85;99908.31;4934074;29;20051;-85
2021/10/21 02:25:09;;;;;;;3.33;2.33;;;;;;;14.21;73.40;99902.56;4934269;29;20047;-86
2021/10/21 02:27:37;;;;;;;2.55;2.30;;;;;;;14.27;73.15;99901.28;4933985;29;20075;-86
2021/10/21 02:30:09;;;;;;;4.90;2.15;;;;;;;14.33;72.46;99890.41;4934807;29;20047;-86
2021/10/21 02:32:36;;;;;;;2.22;2.03;;;;;;;14.37;72.10;99874.31;4934402;29;20047;-88
2021/10/21 02:35:03;;;;;;;4.50;1.98;;;;;;;14.34;72.46;99878.97;4934251;29;20399;-88
2021/10/21 02:37:29;;;;;;;5.15;2.35;;;;;;;14.26;73.09;99874.25;4917184;29;20491;-88
2021/10/21 02:39:56;;;;;;;2.80;2.28;;;;;;;14.23;73.39;99865.78;4934478;29;20043;-86
2021/10/21 02:42:23;;;;;;;2.10;1.92;;;;;;;14.26;73.67;99857.69;4934585;29;20044;-86
2021/10/21 02:44:50;;;;;;;3.05;2.03;;;;;;;14.24;73.66;99865.66;4917400;29;20095;-86
2021/10/21 02:47:16;;;;;;;2.42;2.00;;;;;;;14.15;73.73;99856.66;4934763;29;20048;-86
2021/10/21 02:49:43;;;;;;;5.30;3.40;;;;;;;14.22;73.94;99850.97;4934229;29;20048;-86
2021/10/21 02:52:10;;;;;;;4.53;2.10;;;;;;;14.18;74.71;99829.41;4934144;29;20147;-88
2021/10/21 02:54:37;;;;;;;2.13;1.92;;;;;;;13.92;76.37;99828.63;4933948;29;20063;-88
2021/10/21 02:57:04;;;;;;;1.73;1.63;;;;;;;13.98;76.67;99833.44;4934674;29;20091;-88
2021/10/21 02:59:31;;;;;;;2.40;2.20;;;;;;;13.94;76.97;99821.47;4934500;29;20052;-88
2021/10/21 03:01:57;;;;;;;4.63;2.28;;;;;;;13.95;76.13;99815.28;4916589;29;20052;-88
2021/10/21 03:04:24;;;;;;;2.67;1.98;;;;;;;14.06;75.06;99815.38;4934055;29;20413;-87
2021/10/21 03:06:51;;;;;;;2.53;2.33;;;;;;;14.10;74.52;99810.75;4934013;29;20133;-88
2021/10/21 03:09:18;;;;;;;2.63;2.33;;;;;;;14.27;72.94;99801.66;4933725;29;20043;-88
2021/10/21 03:11:44;;;;;;;3.33;1.90;;;;;;;14.51;71.17;99799.94;4933834;29;20043;-88
2021/10/21 03:14:11;;;;;;;3.72;2.40;;;;;;;14.72;70.00;99796.69;4934032;29;20499;-88
2021/10/21 03:16:39;;;;;;;4.60;2.15;;;;;;;14.83;69.60;99788.84;4936958;29;20087;-88
2021/10/21 03:19:08;;;;;;;2.90;1.58;;;;;;;14.88;69.66;99791.94;4937387;29;20094;-86
2021/10/21 03:21:35;;;;;;;4.13;2.40;;;;;;;14.47;71.47;99787.97;4920578;29;20044;-86
2021/10/21 03:24:02;;;;;;;2.10;1.90;;;;;;;14.34;72.12;99785.41;4937668;29;20078;-86
2021/10/21 03:26:29;;;;;;;2.55;2.22;;;;;;;14.33;71.86;99788.13;4937125;29;20111;-87
2021/10/21 03:28:57;;;;;;;3.97;2.15;;;;;;;14.38;71.61;99779.00;4936935;29;20043;-86
2021/10/21 03:31:23;;;;;;;2.10;2.00;;;;;;;14.32;72.54;99779.41;4937154;29;20039;-87
2021/10/21 03:33:50;;;;;;;3.38;2.47;;;;;;;14.35;71.67;99781.00;4936953;29;20058;-86
2021/10/21 03:36:17;;;;;;;3.80;2.33;;;;;;;14.36;71.69;99777.41;4937160;29;20048;-86
2021/10/21 03:38:43;;;;;;;4.93;2.20;;;;;;;14.44;71.16;99777.69;4936641;29;20039;-85
2021/10/21 03:41:11;;;;;;;2.47;2.28;;;;;;;14.51;70.93;99778.94;4936355;29;20349;-86
2021/10/21 03:43:37;;;;;;;2.30;2.10;;;;;;;14.53;70.96;99771.78;4936682;29;20048;-86
2021/10/21 03:46:04;;;;;;;2.47;2.28;;;;;;;14.63;70.35;99774.56;4936861;29;20511;-88
2021/10/21 03:48:31;;;;;;;2.70;2.47;;;;;;;14.26;72.24;99779.03;4936743;29;20075;-86
2021/10/21 03:50:57;;;;;;;4.90;2.95;;;;;;;14.29;72.40;99778.81;4936193;29;20051;-86
2021/10/21 03:53:24;;;;;;;3.80;3.42;;;;;;;14.13;72.86;99769.44;4936991;29;20454;-85
2021/10/21 03:55:51;;;;;;;8.68;4.60;;;;;;;13.85;74.98;99775.00;4919458;29;20052;-86
2021/10/21 03:58:18;;;;;;;7.85;6.50;;;;;;;13.78;75.23;99773.72;4936806;29;20111;-86
2021/10/21 04:00:45;;;;;;;6.53;5.78;;;;;;;13.91;75.15;99771.94;4936365;29;20039;-86
2021/10/21 04:03:12;;;;;;;8.88;5.50;;;;;;;13.83;75.57;99763.75;4937158;29;20091;-86
2021/10/21 04:05:38;;;;;;;6.28;5.60;;;;;;;14.07;74.21;99753.31;4936673;29;20091;-87
2021/10/21 04:08:05;;;;;;;7.05;5.95;;;;;;;14.07;73.54;99756.78;4937065;29;20105;-86
2021/10/21 04:10:32;;;;;;;7.50;5.63;;;;;;;14.10;74.24;99748.69;4936372;29;20040;-86
2021/10/21 04:13:00;;;;;;;8.57;4.68;;;;;;;14.29;73.28;99749.97;4936553;29;20078;-86
2021/10/21 04:15:27;;;;;;;5.20;4.70;;;;;;;14.31;72.68;99746.28;4936756;29;20143;-87
2021/10/21 04:17:54;;;;;;;5.95;3.92;;;;;;;14.34;72.73;99737.38;4936507;29;20128;-86
2021/10/21 04:20:21;;;;;;;5.88;4.30;;;;;;;14.36;72.46;99738.91;4936750;29;20051;-85
2021/10/21 04:22:49;;;;;;;4.85;3.95;;;;;;;14.35;72.21;99732.00;4936088;29;20118;-86
2021/10/21 04:25:16;;;;;;;5.32;3.17;;;;;;;14.44;71.81;99737.53;4936266;29;20072;-88
2021/10/21 04:27:43;;;;;;;4.82;3.10;;;;;;;14.47;71.84;99738.16;4934806;29;20048;-88
2021/10/21 04:30:11;;;;;;;8.50;3.38;;;;;;;14.54;71.76;99741.16;4918974;29;20067;-88
2021/10/21 04:32:38;;;;;;;4.18;2.67;;;;;;;14.53;72.36;99745.56;4936217;29;20099;-87
2021/10/21 04:35:06;;;;;;;2.72;2.53;;;;;;;14.63;71.28;99750.97;4936376;29;20098;-88
2021/10/21 04:37:33;;;;;;;4.10;2.30;;;;;;;14.73;70.61;99748.50;4935669;29;20056;-85
2021/10/21 04:39:59;;;;;;;3.05;2.75;;;;;;;14.73;70.69;99745.88;4936115;29;20107;-88
2021/10/21 04:42:27;;;;;;;2.35;2.15;;;;;;;14.71;70.53;99745.16;4936478;29;20059;-86
2021/10/21 04:44:55;;;;;;;6.38;2.75;;;;;;;14.68;70.16;99733.94;4935782;29;20123;-86
2021/10/21 04:47:21;;;;;;;4.97;2.60;;;;;;;14.53;70.98;99716.72;4936330;29;20040;-87
2021/10/21 04:49:48;;;;;;;2.17;1.95;;;;;;;14.37;72.28;99721.41;4936079;29;20047;-87
2021/10/21 04:52:15;;;;;;;5.20;2.58;;;;;;;14.24;73.36;99721.47;4935834;29;20546;-86
2021/10/21 04:54:42;;;;;;;8.07;4.05;;;;;;;14.10;74.22;99716.41;4935248;29;20052;-86
2021/10/21 04:57:09;;;;;;;2.17;2.00;;;;;;;13.97;76.04;99710.38;4918941;29;20047;-86
2021/10/21 04:59:35;;;;;;;4.13;2.65;;;;;;;13.91;76.20;99706.44;4935613;29;20095;-86
2021/10/21 05:02:05;;;;;;;2.95;1.90;;;;;;;13.85;77.02;99704.25;4935708;29;20095;-87
2021/10/21 05:04:32;;;;;;;18.27;3.97;;;;;;;13.81;77.96;99700.19;4936066;29;20047;-89
2021/10/21 05:06:59;;;;;;;9.90;2.40;;;;;;;13.75;78.02;99690.13;4936201;29;20083;-90
2021/10/21 05:09:28;;;;;;;4.10;2.53;;;;;;;13.69;78.74;99704.53;4937066;29;20407;-92
2021/10/21 05:11:54;;;;;;;3.58;1.70;;;;;;;13.73;78.42;99707.72;4933680;29;20063;-88
2021/10/21 05:14:23;;;;;;;5.50;2.20;;;;;;;13.70;78.23;99711.44;4930794;29;20399;-85
2021/10/21 05:16:50;;;;;;;4.18;1.75;;;;;;;13.78;77.89;99711.69;4924282;29;20044;-87
2021/10/21 05:19:17;;;;;;;2.00;1.80;;;;;;;13.69;79.28;99704.53;4913407;29;20095;-83
2021/10/21 05:21:52;;;;;;;2.72;1.83;;;;;;;13.65;80.42;99707.47;4928703;29;20139;-84
2021/10/21 05:24:19;;;;;;;2.75;1.80;;;;;;;13.69;80.18;99703.66;4925775;29;20039;-82
2021/10/21 05:26:46;;;;;;;1.83;1.60;;;;;;;13.61;80.60;99699.81;4926153;29;20185;-78
2021/10/21 05:29:13;;;;;;;4.55;1.83;;;;;;;13.60;80.51;99700.75;4929416;29;20041;-81
2021/10/21 05:31:39;;;;;;;2.38;1.73;;;;;;;13.50;81.54;99697.13;4928780;29;20044;-88
2021/10/21 05:34:06;;;;;;;1.95;1.70;;;;;;;13.47;81.96;99691.25;4935055;29;20096;-87
2021/10/21 05:36:34;;;;;;;4.13;2.28;;;;;;;13.42;82.85;99690.75;4925042;29;20095;-83
2021/10/21 05:39:01;;;;;;;2.90;2.00;;;;;;;13.50;82.98;99686.66;4927716;29;20047;-85
2021/10/21 05:41:28;;;;;;;1.98;1.75;;;;;;;13.50;83.02;99675.34;4929249;29;20071;-88
2021/10/21 05:43:54;;;;;;;3.88;1.48;;;;;;;13.53;82.48;99681.19;4911718;29;20044;-85
2021/10/21 05:46:22;;;;;;;3.30;1.65;;;;;;;13.49;82.92;99664.03;4919974;29;20076;-86
2021/10/21 05:48:50;;;;;;;1.48;1.38;;;;;;;13.22;84.58;99658.13;4930190;29;20063;-82
2021/10/21 05:51:17;;;;;;;4.40;1.67;;;;;;;13.19;85.18;99660.91;4921869;29;20499;-80
2021/10/21 05:53:44;;;;;;;4.35;1.30;;;;;;;13.14;85.22;99647.31;4923138;29;20044;-81
2021/10/21 05:56:11;;;;;;;1.77;1.30;;;;;;;13.06;86.45;99659.16;4929099;29;20510;-76
2021/10/21 05:58:38;;;;;;;2.50;1.70;;;;;;;13.05;86.50;99654.88;4930290;29;20048;-81
2021/10/21 06:01:06;;;;;;;3.25;2.20;;;;;;;13.14;85.48;99663.03;4921456;29;20099;-82
2021/10/21 06:03:37;;;;;;;10.77;3.22;;;;;;;13.13;84.26;99667.41;4928454;29;20054;-82
2021/10/21 06:06:06;;;;;;;16.45;7.65;;;;;;;13.04;83.66;99679.34;4927650;29;20055;-81
2021/10/21 06:08:33;;;;;;;15.23;8.45;;;;;;;13.00;83.21;99683.16;4927324;29;20047;-81
2021/10/21 06:11:01;;;;;;;21.00;10.05;;;;;;;12.97;83.23;99678.09;4914445;29;20098;-80
2021/10/21 06:13:28;;;;;;;16.67;9.40;;;;;;;13.15;82.11;99673.38;4930505;29;20119;-80
2021/10/21 06:15:57;;;;;;;12.90;10.02;;;;;;;13.25;81.62;99686.69;4919256;29;20040;-80
2021/10/21 06:18:24;;;;;;;19.02;11.90;;;;;;;13.38;80.65;99679.66;4926450;29;20099;-77
2021/10/21 06:20:51;;;;;;;12.70;8.60;;;;;;;13.28;82.16;99678.63;4927934;29;20130;-84
2021/10/21 06:23:18;;;;;;;9.98;7.60;;;;;;;13.33;82.83;99681.78;4909058;29;20044;-83
2021/10/21 06:25:46;;;;;;;11.32;8.27;;;;;;;13.53;81.64;99680.34;4931232;29;20082;-82
2021/10/21 06:28:13;;;;;;;13.32;8.98;;;;;;;13.63;80.31;99678.75;4927344;29;20049;-82
2021/10/21 06:30:39;;;;;;;14.98;9.05;;;;;;;13.97;78.59;99684.19;4915605;29;20102;-80
2021/10/21 06:33:08;;;;;;;14.77;8.18;;;;;;;14.29;77.25;99673.94;4932239;29;20047;-79
2021/10/21 06:35:35;;;;;;;12.55;7.38;;;;;;;14.57;76.30;99668.31;4932286;29;20044;-78
2021/10/21 06:38:02;;;;;;;9.68;7.20;;;;;;;14.77;75.46;99676.47;4932683;29;20491;-79
2021/10/21 06:40:29;;;;;;;10.65;7.20;;;;;;;15.11;73.17;99672.91;4915864;29;20537;-79
2021/10/21 06:42:56;;;;;;;11.88;7.80;;;;;;;15.41;71.18;99674.94;4933302;29;20075;-78
2021/10/21 06:45:23;;;;;;;8.57;6.38;;;;;;;15.41;71.03;99674.94;4931978;29;20047;-79
2021/10/21 06:47:51;;;;;;;8.25;6.10;;;;;;;15.54;70.79;99673.94;4932603;29;20032;-79
2021/10/21 06:50:18;;;;;;;8.32;6.97;;;;;;;15.55;71.83;99681.69;4933842;29;20052;-79
2021/10/21 06:52:45;;;;;;;8.93;5.57;;;;;;;15.61;71.41;99676.00;4936813;29;20507;-80
2021/10/21 06:55:13;;;;;;;15.57;8.60;;;;;;;14.68;75.06;99665.72;4935578;29;20126;-84
2021/10/21 06:57:52;;;;;;;11.75;8.48;;;;;;;14.99;74.72;99675.66;4936233;29;20035;-81
2021/10/21 07:00:19;;;;;;;11.80;8.18;;;;;;;14.70;75.43;99680.50;4935801;29;20118;-83
2021/10/21 07:02:46;;;;;;;12.63;9.35;;;;;;;14.79;76.29;99685.91;4937645;29;20044;-84
2021/10/21 07:05:14;;;;;;;17.65;9.95;;;;;;;14.55;77.71;99669.41;4936293;29;20052;-85
2021/10/21 07:07:41;;;;;;;14.73;10.50;;;;;;;14.65;77.03;99681.72;4935934;29;20090;-81
2021/10/21 07:10:09;;;;;;;17.63;10.07;;;;;;;14.93;76.07;99685.69;4936359;29;20040;-83
2021/10/21 07:12:37;;;;;;;11.52;9.75;;;;;;;15.17;74.93;99703.94;4935458;29;20062;-83
2021/10/21 07:15:07;;;;;;;16.05;9.57;;;;;;;14.71;77.50;99705.81;4936623;29;20103;-85
2021/10/21 07:17:36;;;;;;;15.10;9.93;;;;;;;14.60;77.83;99712.69;4935699;29;20134;-80
2021/10/21 07:20:05;;;;;;;15.95;8.73;;;;;;;14.81;76.67;99714.66;4938700;29;20056;-82
2021/10/21 07:22:32;;;;;;;11.63;9.13;;;;;;;14.80;76.94;99724.28;4936581;29;20398;-82
2021/10/21 07:24:59;;;;;;;19.38;10.32;;;;;;;14.60;77.38;99728.44;4935317;29;20507;-80
2021/10/21 07:27:26;;;;;;;18.73;10.25;;;;;;;14.98;75.84;99718.63;4935689;29;20047;-82
2021/10/21 07:29:53;;;;;;;13.20;9.27;;;;;;;15.36;73.41;99721.72;4935988;29;20047;-84
2021/10/21 07:32:20;;;;;;;15.02;9.00;;;;;;;15.81;71.70;99723.50;4936403;29;20051;-85
2021/10/21 07:34:46;;;;;;;10.55;8.73;;;;;;;15.92;71.38;99715.59;4935989;29;20094;-83
2021/10/21 07:37:13;;;;;;;14.13;7.97;;;;;;;16.03;71.51;99718.16;4934003;29;20502;-88
2021/10/21 07:39:41;;;;;;;8.13;7.15;;;;;;;16.14;72.05;99719.94;4934803;29;20491;-84
2021/10/21 07:42:10;;;;;;;25.80;8.70;;;;;;;16.22;72.22;99699.94;4934298;29;20040;-80
2021/10/21 07:44:37;;;;;;;8.68;5.93;;;;;;;16.00;73.66;99686.91;4933433;29;20043;-85
2021/10/21 07:47:04;;;;;;;7.60;6.47;;;;;;;15.66;75.14;99694.88;4934824;29;20043;-80
2021/10/21 07:49:31;;;;;;;13.68;8.27;;;;;;;15.15;76.23;99686.66;4934966;29;20137;-88
2021/10/21 07:52:01;;;;;;;15.30;8.60;;;;;;;15.32;77.96;99674.81;4932212;29;20060;-82
2021/10/21 07:54:29;;;;;;;11.52;9.25;;;;;;;15.48;74.96;99690.19;4933311;29;20206;-85
2021/10/21 07:57:00;;;;;;;15.10;8.35;;;;;;;15.63;75.80;99702.16;4935004;29;20111;-86
2021/10/21 07:59:28;;;;;;;12.93;9.30;;;;;;;15.49;74.78;99692.69;4918260;29;20046;-89
2021/10/21 08:01:58;;;;;;;15.07;9.07;;;;;;;15.59;72.50;99692.81;4935506;29;20118;-87
2021/10/21 08:04:28;;;;;;;13.15;9.35;;;;;;;15.62;73.32;99695.22;4934761;29;20146;-86
2021/10/21 08:06:56;;;;;;;15.75;11.63;;;;;;;15.44;74.80;99705.34;4935378;29;20095;-87
2021/10/21 08:09:24;;;;;;;15.32;12.02;;;;;;;15.56;75.12;99703.56;4934740;29;20036;-84
2021/10/21 08:11:52;;;;;;;19.48;12.55;;;;;;;15.48;73.82;99701.53;4935860;29;20036;-81
2021/10/21 08:14:20;;;;;;;15.35;12.82;;;;;;;15.81;72.20;99700.66;4934871;29;20043;-85
2021/10/21 08:16:48;;;;;;;15.77;11.98;;;;;;;16.10;71.71;99716.75;4935317;29;20040;-83
2021/10/21 08:19:16;;;;;;;26.95;14.18;;;;;;;16.40;71.60;99728.31;4918297;29;20439;-84
2021/10/21 08:21:46;;;;;;;13.43;12.15;;;;;;;16.30;71.71;99724.78;4935134;29;20495;-84
2021/10/21 08:24:18;;;;;;;22.38;12.50;;;;;;;16.57;69.35;99712.00;4934641;29;20502;-85
2021/10/21 08:26:49;;;;;;;19.55;12.13;;;;;;;16.58;68.73;99707.56;4934309;29;20137;-83
2021/10/21 08:29:16;;;;;;;31.80;13.35;;;;;;;16.52;69.02;99710.72;4934764;29;20435;-82
2021/10/21 08:31:44;;;;;;;14.82;10.75;;;;;;;16.95;68.21;99703.53;4935127;29;20051;-82
2021/10/21 08:34:10;;;;;;;20.38;10.27;;;;;;;16.89;68.49;99700.59;4934345;29;20054;-89
2021/10/21 08:36:37;;;;;;;19.85;11.95;;;;;;;16.69;69.35;99705.69;4928175;29;20095;-87
2021/10/21 08:39:07;;;;;;;12.18;10.95;;;;;;;16.52;69.93;99700.19;4934452;29;20040;-87
2021/10/21 08:41:34;;;;;;;14.60;9.80;;;;;;;16.86;67.98;99685.03;4934755;29;20098;-84
2021/10/21 08:44:01;;;;;;;13.90;10.23;;;;;;;17.21;66.93;99682.88;4936594;29;20039;-87
2021/10/21 08:46:28;;;;;;;11.77;10.23;;;;;;;17.28;65.90;99688.44;4943252;29;20067;-85
2021/10/21 08:49:00;;;;;;;14.50;11.25;;;;;;;17.47;65.24;99685.88;4935074;29;20052;-85
2021/10/21 08:51:30;;;;;;;18.08;10.70;;;;;;;17.78;64.52;99680.53;4934199;29;20044;-82
2021/10/21 08:53:58;;;;;;;13.77;11.48;;;;;;;17.96;63.63;99678.09;4935394;29;20052;-84
2021/10/21 08:56:25;;;;;;;19.63;11.95;;;;;;;17.99;63.79;99676.00;4933978;29;20828;-85
2021/10/21 08:58:54;;;;;;;15.50;12.75;;;;;;;18.21;63.32;99668.78;4934634;29;20047;-83
2021/10/21 09:01:31;;;;;;;16.75;14.27;;;;;;;18.58;62.08;99660.94;4934784;29;20554;-86
2021/10/21 09:04:21;;;;;;;19.98;15.52;;;;;;;18.71;61.94;99656.25;4930773;29;20048;-85
2021/10/21 09:09:45;;;;;;;23.15;14.05;;;;;;;19.69;58.88;99675.16;4889497;29;20407;-88
2021/10/21 09:12:14;;;;;;;18.00;14.30;;;;;;;19.70;59.26;99661.78;4934619;29;20056;-87
2021/10/21 09:14:43;;;;;;;14.43;13.00;;;;;;;20.01;58.24;99650.84;4934746;29;20046;-85
2021/10/21 09:17:12;;;;;;;16.55;12.98;;;;;;;19.72;58.27;99651.09;4932810;29;20142;-84
2021/10/21 09:19:41;;;;;;;22.10;14.57;;;;;;;19.76;58.77;99665.66;4928396;29;20043;-86
2021/10/21 09:22:28;;;;;;;17.10;13.15;;;;;;;19.87;58.66;99676.88;4933291;29;20050;-87
2021/10/21 09:25:08;;;;;;;14.65;12.45;;;;;;;19.06;61.86;99689.91;4932232;29;20047;-85
2021/10/21 09:27:38;;;;;;;16.10;12.73;;;;;;;19.49;60.63;99672.59;4929986;29;20051;-86
2021/10/21 09:30:06;;;;;;;14.52;12.90;;;;;;;19.48;60.98;99673.59;4914225;29;20507;-85
2021/10/21 09:32:35;;;;;;;17.73;13.20;;;;;;;19.70;60.40;99659.16;4931921;29;20507;-87
2021/10/21 09:35:05;;;;;;;16.25;12.43;;;;;;;20.10;59.63;99660.53;4929944;29;20095;-83
2021/10/21 09:37:40;;;;;;;14.80;12.40;;;;;;;20.26;59.29;99660.69;4924222;29;20071;-87
2021/10/21 09:40:12;;;;;;;11.82;10.43;;;;;;;20.55;57.26;99654.28;4928225;29;20043;-86
2021/10/21 09:42:43;;;;;;;13.15;11.80;;;;;;;20.45;58.05;99646.41;4928693;29;20087;-82
2021/10/21 09:45:15;;;;;;;15.85;12.13;;;;;;;20.56;57.22;99645.34;4931709;29;20062;-83
2021/10/21 09:47:45;;;;;;;14.27;12.80;;;;;;;19.93;58.87;99658.72;4934811;29;20048;-92
2021/10/21 09:50:39;;;;;;;16.38;9.88;;;;;;;19.88;59.44;99669.75;4936746;29;20052;-85
2021/10/21 09:53:18;;;;;;;15.37;9.90;;;;;;;19.58;60.60;99649.75;4938087;29;20047;-90
2021/10/21 09:56:01;;;;;;;16.67;10.43;;;;;;;19.86;59.77;99646.09;4938470;29;20079;-86
2021/10/21 09:58:30;;;;;;;11.82;9.82;;;;;;;19.51;61.43;99656.59;4927512;29;20035;-88
2021/10/21 10:01:06;;;;;;;17.13;11.07;;;;;;;19.14;64.65;99652.19;4934501;29;20068;-86
2021/10/21 10:03:35;;;;;;;14.95;12.93;;;;;;;19.18;65.45;99658.88;4930249;29;20048;-89
2021/10/21 10:06:02;;;;;;;13.90;12.60;;;;;;;19.25;64.53;99646.72;4950516;29;20122;-88
2021/10/21 10:08:30;;;;;;;16.70;13.20;;;;;;;19.73;64.14;99636.88;4936549;29;20048;-85
2021/10/21 10:11:02;;;;;;;19.75;13.57;;;;;;;19.71;62.66;99633.53;4938280;29;20035;-88
2021/10/21 10:13:30;;;;;;;14.23;12.75;;;;;;;19.79;61.82;99628.34;4917616;29;20040;-84
2021/10/21 10:15:57;;;;;;;19.55;12.95;;;;;;;19.46;64.19;99633.25;4946167;29;20051;-89
2021/10/21 10:18:27;;;;;;;14.85;13.25;;;;;;;19.68;63.39;99634.69;4936463;29;20046;-85
2021/10/21 10:21:07;;;;;;;;;;;;;;;19.38;64.23;99612.84;4918459;29;20047;-88
2021/10/21 10:23:38;;;;;;;20.25;12.93;;;;;;;19.89;62.70;99610.59;4919686;29;19947;-86
2021/10/21 10:26:05;;;;;;;15.65;13.55;;;;;;;20.30;61.06;99608.28;4939651;29;20043;-83
2021/10/21 10:28:53;;;;;;;16.02;14.43;;;;;;;20.51;60.63;99600.84;4920855;29;20046;-87
2021/10/21 10:31:43;;;;;;;14.13;12.10;;;;;;;19.21;64.08;99589.84;4935080;29;20103;-84
2021/10/21 10:34:31;;;;;;;16.65;12.75;;;;;;;18.89;65.57;99573.63;4940575;29;20447;-85
2021/10/21 10:37:13;;;;;;;13.73;11.90;;;;;;;19.96;62.02;99563.19;4936461;29;20047;-85
2021/10/21 10:39:49;;;;;;;13.13;7.20;;;;;;;20.41;58.23;99552.44;4937300;29;20087;-85
2021/10/21 10:42:31;;;;;;;4.40;3.38;;;;;;;21.71;52.66;99568.81;4938730;29;20039;-86
2021/10/21 10:44:59;;;;;;;4.95;3.60;;;;;;;21.48;53.56;99583.72;4941218;29;20459;-88
2021/10/21 10:47:42;;;;;;;4.10;3.58;;;;;;;21.91;52.58;99561.38;4936849;29;20046;-89
2021/10/21 10:50:22;;;;;;;1.85;1.30;;;;;;;21.91;51.05;99547.28;4938024;29;20051;-85
2021/10/21 10:52:54;;;;;;;0.60;0.60;;;;;;;22.30;49.91;99541.28;4937205;29;20455;-90
2021/10/21 10:55:24;;;;;;;1.30;0.50;;;;;;;22.21;49.79;99537.81;4940513;29;20150;-88
2021/10/21 10:57:57;;;;;;;0.40;0.40;;;;;;;22.37;48.85;99561.69;4936958;29;20111;-85
2021/10/21 11:00:37;;;;;;;0.93;0.50;;;;;;;22.52;48.24;99568.94;4937571;29;20039;-89
2021/10/21 11:03:05;;;;;;;2.95;0.45;;;;;;;22.15;48.85;99559.72;4937968;29;20501;-85
2021/10/21 11:05:47;;;;;;;0.32;0.30;;;;;;;22.44;48.06;99554.69;4933671;29;20043;-85
2021/10/21 11:08:16;;;;;;;1.02;0.40;;;;;;;22.14;48.78;99553.59;4932701;29;20051;-81
2021/10/21 11:10:54;;;;;;;2.38;0.40;;;;;;;22.13;48.72;99536.00;4934725;29;20519;-81
2021/10/21 11:13:23;;;;;;;2.17;0.55;;;;;;;22.02;49.26;99543.47;4933977;29;20040;-82
2021/10/21 11:15:51;;;;;;;2.25;0.40;;;;;;;22.14;49.38;99540.31;4934536;29;20483;-79
2021/10/21 11:18:43;;;;;;;0.30;0.30;;;;;;;21.98;49.79;99548.25;4932684;29;20044;-81
2021/10/21 11:21:45;;;;;;;3.90;3.05;;;;;;;21.84;51.69;99555.09;4930991;29;20032;-81
2021/10/21 11:24:52;;;;;;;10.88;5.50;;;;;;;20.95;56.85;99546.94;4931671;29;20106;-82
2021/10/21 11:27:21;;;;;;;10.65;5.63;;;;;;;20.79;58.04;99556.47;4933039;29;20048;-80
2021/10/21 11:29:48;;;;;;;15.90;7.45;;;;;;;20.78;58.27;99554.81;4935260;29;20477;-82
2021/10/21 11:32:17;;;;;;;6.05;5.22;;;;;;;21.10;56.51;99545.31;4934006;29;20435;-83
2021/10/21 11:34:51;;;;;;;6.05;5.45;;;;;;;21.26;55.67;99542.72;4934629;29;20095;-83
2021/10/21 11:37:56;;;;;;;;;;;;;;;21.22;56.62;99545.84;4934369;29;20071;-83
2021/10/21 11:40:40;;;;;;;;;;;;;;;21.18;56.75;99548.81;4856787;29;19924;-83
2021/10/21 11:43:35;;;;;;;12.90;7.93;;;;;;;20.97;57.95;99550.22;4856840;29;20368;-91